createdAt,value
2023-03-21T00:00:56.312Z,3.83
2023-03-21T00:03:23.101Z,3.38
2023-03-21T00:05:52.082Z,3.70
2023-03-21T00:08:22.366Z,2.92
2023-03-21T00:10:56.265Z,3.85
2023-03-21T00:13:22.881Z,3.40
2023-03-21T00:16:05.800Z,3.30
2023-03-21T00:18:43.119Z,3.42
2023-03-21T00:24:00.441Z,3.22
2023-03-21T00:26:26.973Z,3.70
2023-03-21T00:28:53.448Z,4.38
2023-03-21T00:31:23.061Z,2.78
2023-03-21T00:33:52.304Z,3.72
2023-03-21T00:36:21.800Z,2.88
2023-03-21T00:38:52.063Z,3.47
2023-03-21T00:41:40.939Z,3.25
2023-03-21T00:44:08.567Z,3.17
2023-03-21T00:46:45.259Z,3.47
2023-03-21T00:49:16.063Z,3.65
2023-03-21T00:51:43.729Z,3.45
2023-03-21T00:54:12.350Z,3.90
2023-03-21T00:56:38.800Z,4.20
2023-03-21T00:59:05.296Z,4.00
2023-03-21T01:01:32.282Z,3.67
2023-03-21T01:04:07.675Z,3.42
2023-03-21T01:06:40.216Z,4.43
2023-03-21T01:09:14.024Z,4.13
2023-03-21T01:11:41.772Z,3.88
2023-03-21T01:14:21.555Z,4.10
2023-03-21T01:16:52.541Z,3.65
2023-03-21T01:19:27.476Z,3.35
2023-03-21T01:21:56.466Z,4.18
2023-03-21T01:24:23.870Z,4.32
2023-03-21T01:26:52.454Z,4.28
2023-03-21T01:29:18.886Z,4.53
2023-03-21T01:31:45.565Z,4.65
2023-03-21T01:34:12.218Z,4.57
2023-03-21T01:36:38.899Z,4.30
2023-03-21T01:39:06.688Z,5.47
2023-03-21T01:41:43.469Z,4.22
2023-03-21T01:44:17.170Z,4.18
2023-03-21T01:47:03.589Z,4.75
2023-03-21T01:49:40.976Z,5.43
2023-03-21T01:52:18.962Z,4.43
2023-03-21T01:54:54.629Z,5.78
2023-03-21T01:58:06.713Z,4.88
2023-03-21T02:00:34.235Z,5.45
2023-03-21T02:03:13.648Z,4.63
2023-03-21T02:05:47.987Z,4.47
2023-03-21T02:08:14.546Z,5.32
2023-03-21T02:10:44.061Z,3.90
2023-03-21T02:13:11.881Z,4.15
2023-03-21T02:15:41.371Z,4.47
2023-03-21T02:18:27.968Z,4.28
2023-03-21T02:21:12.857Z,4.30
2023-03-21T02:23:56.695Z,4.30
2023-03-21T02:26:42.403Z,4.30
2023-03-21T02:29:19.362Z,4.20
2023-03-21T02:32:20.334Z,4.68
2023-03-21T02:34:57.563Z,4.30
2023-03-21T02:37:42.912Z,4.47
2023-03-21T02:40:28.522Z,4.10
2023-03-21T02:43:23.289Z,3.67
2023-03-21T02:46:17.108Z,3.65
2023-03-21T02:49:43.106Z,4.15
2023-03-21T02:52:31.707Z,3.58
2023-03-21T02:55:05.574Z,3.75
2023-03-21T02:57:42.107Z,3.67
2023-03-21T03:00:16.658Z,3.47
2023-03-21T03:02:44.120Z,3.20
2023-03-21T03:05:22.745Z,2.33
2023-03-21T03:08:00.889Z,2.97
2023-03-21T03:10:46.375Z,2.65
2023-03-21T03:13:12.815Z,2.80
2023-03-21T03:15:55.081Z,2.88
2023-03-21T03:18:40.445Z,3.13
2023-03-21T03:21:06.946Z,2.77
2023-03-21T03:24:10.121Z,2.20
2023-03-21T03:26:41.640Z,2.57
2023-03-21T03:29:11.874Z,2.67
2023-03-21T03:31:45.837Z,3.27
2023-03-21T03:34:17.955Z,2.83
2023-03-21T03:36:47.676Z,2.53
2023-03-21T03:39:15.885Z,2.63
2023-03-21T03:42:08.021Z,3.30
2023-03-21T03:44:36.326Z,2.83
2023-03-21T03:47:22.848Z,3.27
2023-03-21T03:50:26.623Z,2.80
2023-03-21T03:53:13.012Z,3.63
2023-03-21T03:55:45.596Z,3.00
2023-03-21T03:58:21.723Z,2.97
2023-03-21T04:00:51.813Z,2.83
2023-03-21T04:03:18.770Z,3.15
2023-03-21T04:05:47.803Z,3.47
2023-03-21T04:08:16.134Z,4.17
2023-03-21T04:10:43.078Z,3.33
2023-03-21T04:13:09.904Z,3.90
2023-03-21T04:15:36.766Z,4.22
2023-03-21T04:18:03.384Z,3.90
2023-03-21T04:20:36.929Z,4.43
2023-03-21T04:23:04.614Z,3.78
2023-03-21T04:25:38.635Z,3.58
2023-03-21T04:28:06.948Z,3.88
2023-03-21T04:30:34.227Z,3.37
2023-03-21T04:33:04.478Z,3.97
2023-03-21T04:35:37.475Z,3.33
2023-03-21T04:38:04.987Z,2.90
2023-03-21T04:40:32.736Z,3.25
2023-03-21T04:43:03.506Z,3.03
2023-03-21T04:45:29.970Z,3.33
2023-03-21T04:47:57.358Z,3.33
2023-03-21T04:50:23.938Z,2.97
2023-03-21T04:52:50.622Z,3.43
2023-03-21T04:55:17.141Z,3.33
2023-03-21T04:57:43.613Z,3.27
2023-03-21T05:00:10.835Z,3.03
2023-03-21T05:02:38.454Z,3.77
2023-03-21T05:05:05.433Z,3.40
2023-03-21T05:07:35.010Z,3.13
2023-03-21T05:10:02.678Z,3.83
2023-03-21T05:12:29.343Z,3.23
2023-03-21T05:14:55.844Z,3.17
2023-03-21T05:17:24.957Z,2.90
2023-03-21T05:19:52.889Z,3.57
2023-03-21T05:22:20.495Z,3.43
2023-03-21T05:24:50.802Z,3.13
2023-03-21T05:27:35.805Z,3.50
2023-03-21T05:30:10.039Z,3.40
2023-03-21T05:32:39.782Z,3.37
2023-03-21T05:35:07.130Z,3.97
2023-03-21T05:37:36.826Z,3.03
2023-03-21T05:40:06.587Z,3.33
2023-03-21T05:42:33.288Z,3.50
2023-03-21T05:44:59.823Z,4.90
2023-03-21T05:47:26.794Z,3.27
2023-03-21T05:49:53.253Z,3.90
2023-03-21T05:52:19.805Z,3.47
2023-03-21T05:54:46.555Z,3.80
2023-03-21T05:57:13.044Z,3.30
2023-03-21T05:59:39.578Z,3.50
2023-03-21T06:02:09.562Z,3.10
2023-03-21T06:04:38.899Z,3.23
2023-03-21T06:07:07.730Z,3.27
2023-03-21T06:09:38.359Z,3.30
2023-03-21T06:12:06.169Z,3.80
2023-03-21T06:14:32.656Z,3.37
2023-03-21T06:16:59.196Z,3.97
2023-03-21T06:19:26.208Z,4.10
2023-03-21T06:21:52.707Z,4.30
2023-03-21T06:24:19.166Z,4.50
2023-03-21T06:26:46.323Z,4.67
2023-03-21T06:29:12.921Z,6.50
2023-03-21T06:31:39.586Z,5.03
2023-03-21T06:34:11.734Z,4.50
2023-03-21T06:36:38.420Z,4.13
2023-03-21T06:39:08.282Z,3.77
2023-03-21T06:41:38.697Z,3.40
2023-03-21T06:44:08.954Z,3.20
2023-03-21T06:46:39.322Z,3.20
2023-03-21T06:49:11.156Z,3.03
2023-03-21T06:51:40.312Z,3.03
2023-03-21T06:54:10.907Z,3.47
2023-03-21T06:56:41.472Z,3.70
2023-03-21T06:59:08.993Z,3.47
2023-03-21T07:01:38.022Z,3.20
2023-03-21T07:04:08.932Z,3.17
2023-03-21T07:06:41.492Z,4.17
2023-03-21T07:09:08.460Z,3.67
2023-03-21T07:11:41.661Z,3.13
2023-03-21T07:14:08.551Z,3.20
2023-03-21T07:16:36.606Z,3.20
2023-03-21T07:19:03.157Z,3.75
2023-03-21T07:21:30.034Z,3.40
2023-03-21T07:23:57.086Z,3.47
2023-03-21T07:26:23.942Z,4.07
2023-03-21T07:28:50.768Z,3.45
2023-03-21T07:31:17.579Z,3.63
2023-03-21T07:33:44.217Z,3.35
2023-03-21T07:36:13.313Z,3.72
2023-03-21T07:38:41.133Z,2.80
2023-03-21T07:41:08.150Z,2.67
2023-03-21T07:43:40.221Z,3.45
2023-03-21T07:46:08.256Z,3.15
2023-03-21T07:48:40.803Z,2.97
2023-03-21T07:51:09.873Z,3.00
2023-03-21T07:53:37.354Z,3.13
2023-03-21T07:56:07.364Z,3.30
2023-03-21T07:58:41.924Z,3.35
2023-03-21T08:01:08.546Z,3.33
2023-03-21T08:03:37.793Z,3.40
2023-03-21T08:06:06.935Z,3.50
2023-03-21T08:08:33.461Z,3.55
2023-03-21T08:11:00.119Z,3.40
2023-03-21T08:13:26.613Z,3.63
2023-03-21T08:15:53.409Z,3.67
2023-03-21T08:18:19.889Z,3.10
2023-03-21T08:20:46.494Z,3.65
2023-03-21T08:23:13.882Z,3.10
2023-03-21T08:25:40.493Z,3.63
2023-03-21T08:28:09.823Z,3.30
2023-03-21T08:30:37.922Z,3.67
2023-03-21T08:33:06.849Z,3.50
2023-03-21T08:35:33.433Z,3.10
2023-03-21T08:38:03.098Z,3.45
2023-03-21T08:40:29.632Z,3.38
2023-03-21T08:42:56.232Z,2.50
2023-03-21T08:45:23.720Z,2.95
2023-03-21T08:47:50.344Z,3.28
2023-03-21T08:50:22.350Z,2.60
2023-03-21T08:52:49.693Z,3.70
2023-03-21T08:55:18.080Z,3.35
2023-03-21T08:57:45.884Z,2.85
2023-03-21T09:00:15.231Z,2.90
2023-03-21T09:02:42.190Z,2.33
2023-03-21T09:05:11.908Z,2.60
2023-03-21T09:07:39.859Z,2.38
2023-03-21T09:10:22.145Z,2.95
2023-03-21T09:12:54.326Z,2.60
2023-03-21T09:15:24.805Z,2.63
2023-03-21T09:17:54.179Z,2.65
2023-03-21T09:20:26.253Z,2.42
2023-03-21T09:22:53.708Z,2.70
2023-03-21T09:25:21.572Z,2.67
2023-03-21T09:27:48.347Z,2.55
2023-03-21T09:30:17.952Z,2.10
2023-03-21T09:32:49.429Z,2.85
2023-03-21T09:35:20.528Z,2.28
2023-03-21T09:37:48.955Z,2.58
2023-03-21T09:40:40.149Z,2.80
2023-03-21T09:43:36.634Z,2.75
2023-03-21T09:46:29.101Z,3.03
2023-03-21T09:49:02.716Z,2.83
2023-03-21T09:51:41.091Z,2.28
2023-03-21T09:54:17.781Z,2.45
2023-03-21T09:56:45.693Z,3.03
2023-03-21T09:59:22.783Z,2.72
2023-03-21T10:01:50.573Z,2.38
2023-03-21T10:04:20.697Z,2.60
2023-03-21T10:06:55.406Z,1.77
2023-03-21T10:09:24.551Z,1.98
2023-03-21T10:11:56.534Z,2.13
2023-03-21T10:14:45.416Z,1.73
2023-03-21T10:17:44.133Z,1.90
2023-03-21T10:20:11.985Z,1.70
2023-03-21T10:22:38.682Z,1.83
2023-03-21T10:25:08.660Z,2.70
2023-03-21T10:27:39.789Z,1.98
2023-03-21T10:30:16.128Z,1.77
2023-03-21T10:32:42.866Z,1.80
2023-03-21T10:35:13.216Z,1.77
2023-03-21T10:37:39.896Z,1.80
2023-03-21T10:40:15.413Z,1.50
2023-03-21T10:42:43.084Z,2.47
2023-03-21T10:45:19.510Z,1.55
2023-03-21T10:47:51.582Z,3.30
2023-03-21T10:50:24.952Z,2.22
2023-03-21T10:52:55.615Z,2.00
2023-03-21T10:55:32.106Z,3.97
2023-03-21T10:58:18.963Z,2.80
2023-03-21T11:00:47.745Z,3.28
2023-03-21T11:03:31.393Z,4.20
2023-03-21T11:06:28.413Z,1.60
2023-03-21T11:09:00.489Z,1.52
2023-03-21T11:11:42.414Z,2.53
2023-03-21T11:14:31.957Z,1.92
2023-03-21T11:16:58.601Z,3.70
2023-03-21T11:19:33.668Z,3.30
2023-03-21T11:22:08.549Z,3.58
2023-03-21T11:24:38.359Z,3.95
2023-03-21T11:27:09.087Z,3.85
2023-03-21T11:29:41.439Z,3.90
2023-03-21T11:32:14.806Z,2.97
2023-03-21T11:34:47.900Z,4.07
2023-03-21T11:37:21.113Z,3.90
2023-03-21T11:39:47.655Z,3.60
2023-03-21T11:42:32.828Z,3.58
2023-03-21T11:45:13.751Z,3.03
2023-03-21T11:47:40.580Z,3.53
2023-03-21T11:50:47.317Z,3.38
2023-03-21T11:53:21.036Z,3.40
2023-03-21T11:55:56.914Z,3.30
2023-03-21T11:58:31.592Z,3.88
2023-03-21T12:01:19.480Z,3.47
2023-03-21T12:04:04.132Z,3.38
2023-03-21T12:06:30.674Z,3.25
2023-03-21T12:09:09.170Z,2.97
2023-03-21T12:11:55.363Z,3.00
2023-03-21T12:14:29.626Z,3.00
2023-03-21T12:17:22.028Z,3.00
2023-03-21T12:20:25.657Z,2.80
2023-03-21T12:23:23.423Z,3.30
2023-03-21T12:26:04.168Z,2.90
2023-03-21T12:29:04.546Z,3.97
2023-03-21T12:31:49.396Z,3.08
2023-03-21T12:34:24.582Z,2.90
2023-03-21T12:37:05.761Z,2.60
2023-03-21T12:39:36.713Z,3.10
2023-03-21T12:42:30.683Z,3.03
2023-03-21T12:45:11.534Z,3.08
2023-03-21T12:47:47.059Z,3.33
2023-03-21T12:50:40.550Z,3.42
2023-03-21T12:53:36.040Z,3.10
2023-03-21T12:56:12.384Z,3.35
2023-03-21T12:58:59.592Z,3.10
2023-03-21T13:01:28.596Z,3.33
2023-03-21T13:04:17.325Z,3.50
2023-03-21T13:06:46.572Z,3.30
2023-03-21T13:09:18.110Z,3.83
2023-03-21T13:11:48.441Z,3.15
2023-03-21T13:14:25.404Z,2.80
2023-03-21T13:17:01.771Z,3.08
2023-03-21T13:19:41.987Z,3.03
2023-03-21T13:22:28.182Z,3.13
2023-03-21T13:25:06.713Z,3.35
2023-03-21T13:27:34.445Z,3.33
2023-03-21T13:30:12.341Z,2.90
2023-03-21T13:32:44.360Z,2.92
2023-03-21T13:35:27.716Z,3.17
2023-03-21T13:37:59.224Z,3.20
2023-03-21T13:40:29.166Z,3.20
2023-03-21T13:42:59.598Z,2.95
2023-03-21T13:45:44.517Z,3.30
2023-03-21T13:48:31.769Z,3.30
2023-03-21T13:51:04.213Z,3.05
2023-03-21T13:53:44.752Z,3.30
2023-03-21T13:56:17.407Z,3.45
2023-03-21T13:58:43.798Z,3.33
2023-03-21T14:01:45.070Z,3.40
2023-03-21T14:04:21.260Z,3.90
2023-03-21T14:06:54.475Z,3.38
2023-03-21T14:09:43.926Z,3.67
2023-03-21T14:12:19.668Z,3.75
2023-03-21T14:14:50.768Z,3.58
2023-03-21T14:17:29.658Z,3.60
2023-03-21T14:20:00.764Z,3.45
2023-03-21T14:22:28.211Z,3.50
2023-03-21T14:25:01.948Z,3.83
2023-03-21T14:27:34.292Z,3.80
2023-03-21T14:30:02.263Z,3.60
2023-03-21T14:32:30.298Z,3.80
2023-03-21T14:34:59.646Z,3.60
2023-03-21T14:37:45.174Z,3.22
2023-03-21T14:40:27.817Z,3.50
2023-03-21T14:42:55.115Z,3.35
2023-03-21T14:45:28.486Z,3.92
2023-03-21T14:48:01.463Z,3.90
2023-03-21T14:50:39.494Z,3.70
2023-03-21T14:53:08.104Z,3.72
2023-03-21T14:55:45.531Z,3.13
2023-03-21T14:58:17.633Z,3.70
2023-03-21T15:00:47.649Z,3.70
2023-03-21T15:03:17.279Z,3.20
2023-03-21T15:05:45.889Z,3.63
2023-03-21T15:08:20.228Z,3.40
2023-03-21T15:11:07.327Z,3.28
2023-03-21T15:14:17.471Z,3.35
2023-03-21T15:16:44.281Z,3.20
2023-03-21T15:19:16.341Z,3.42
2023-03-21T15:21:51.094Z,3.20
2023-03-21T15:24:25.709Z,4.05
2023-03-21T15:26:59.064Z,3.25
2023-03-21T15:29:27.385Z,3.72
2023-03-21T15:31:54.123Z,3.03
2023-03-21T15:34:27.717Z,3.55
2023-03-21T15:37:14.595Z,3.50
2023-03-21T15:39:41.804Z,3.50
2023-03-21T15:42:33.914Z,3.35
2023-03-21T15:45:03.150Z,3.45
2023-03-21T15:47:47.779Z,3.63
2023-03-21T15:50:36.613Z,3.28
2023-03-21T15:53:07.787Z,3.65
2023-03-21T15:56:01.946Z,3.20
2023-03-21T15:58:36.151Z,3.28
2023-03-21T16:01:06.638Z,3.53
2023-03-21T16:03:37.169Z,3.13
2023-03-21T16:06:20.665Z,3.78
2023-03-21T16:08:50.081Z,3.90
2023-03-21T16:11:22.205Z,3.58
2023-03-21T16:13:49.637Z,4.68
2023-03-21T16:16:25.961Z,4.03
2023-03-21T16:18:54.311Z,3.40
2023-03-21T16:21:24.272Z,3.97
2023-03-21T16:23:51.158Z,3.80
2023-03-21T16:26:22.867Z,3.17
2023-03-21T16:28:50.237Z,3.40
2023-03-21T16:31:24.875Z,4.05
2023-03-21T16:33:52.276Z,3.90
2023-03-21T16:36:24.400Z,4.22
2023-03-21T16:38:52.741Z,3.33
2023-03-21T16:41:20.793Z,3.75
2023-03-21T16:43:47.850Z,3.67
2023-03-21T16:46:16.856Z,3.17
2023-03-21T16:48:46.556Z,3.40
2023-03-21T16:51:17.915Z,3.45
2023-03-21T16:53:44.954Z,3.75
2023-03-21T16:56:18.858Z,4.15
2023-03-21T16:58:45.533Z,4.30
2023-03-21T17:01:19.362Z,3.80
2023-03-21T17:03:47.440Z,3.90
2023-03-21T17:06:22.586Z,3.90
2023-03-21T17:08:49.126Z,3.67
2023-03-21T17:11:20.090Z,3.67
2023-03-21T17:13:51.981Z,4.90
2023-03-21T17:16:26.680Z,4.13
2023-03-21T17:18:54.349Z,3.22
2023-03-21T17:21:23.123Z,4.47
2023-03-21T17:23:50.579Z,4.47
2023-03-21T17:26:23.374Z,4.43
2023-03-21T17:28:50.644Z,4.10
2023-03-21T17:31:20.152Z,3.90
2023-03-21T17:33:51.039Z,4.07
2023-03-21T17:36:26.518Z,4.30
2023-03-21T17:38:55.410Z,3.80
2023-03-21T17:41:22.715Z,3.75
2023-03-21T17:43:50.977Z,3.65
2023-03-21T17:46:21.053Z,3.67
2023-03-21T17:48:51.548Z,4.03
2023-03-21T17:51:18.394Z,3.90
2023-03-21T17:53:50.661Z,3.65
2023-03-21T17:56:31.930Z,3.67
2023-03-21T17:59:00.445Z,3.65
2023-03-21T18:01:30.285Z,3.63
2023-03-21T18:03:57.636Z,4.00
2023-03-21T18:06:25.920Z,4.53
2023-03-21T18:08:59.631Z,2.95
2023-03-21T18:11:27.343Z,3.55
2023-03-21T18:14:13.708Z,5.50
2023-03-21T18:16:44.895Z,3.08
2023-03-21T18:19:17.899Z,2.60
2023-03-21T18:21:45.244Z,2.35
2023-03-21T18:24:14.827Z,2.20
2023-03-21T18:26:43.688Z,1.65
2023-03-21T18:32:07.371Z,2.47
2023-03-21T18:34:37.417Z,2.72
2023-03-21T18:37:07.482Z,2.58
2023-03-21T18:39:36.220Z,2.08
2023-03-21T18:42:04.124Z,4.10
2023-03-21T18:44:38.976Z,2.50
2023-03-21T18:47:07.244Z,2.95
2023-03-21T18:52:21.333Z,2.97
2023-03-21T18:54:48.048Z,3.25
2023-03-21T19:00:02.822Z,2.60
2023-03-21T19:02:29.309Z,1.95
2023-03-21T19:04:57.850Z,2.20
2023-03-21T19:07:24.928Z,1.50
2023-03-21T19:10:15.433Z,1.83
2023-03-21T19:12:38.522Z,2.00
2023-03-21T19:15:08.521Z,2.38
2023-03-21T19:18:23.264Z,2.53
2023-03-21T19:20:21.828Z,1.90
2023-03-21T19:22:48.734Z,4.32
2023-03-21T19:25:16.524Z,3.38
2023-03-21T19:28:32.171Z,2.63
2023-03-21T19:31:09.499Z,2.58
2023-03-21T19:33:36.208Z,2.83
2023-03-21T19:36:18.011Z,2.35
2023-03-21T19:38:47.629Z,3.20
2023-03-21T19:41:18.060Z,3.40
2023-03-21T19:43:54.200Z,3.60
2023-03-21T19:46:25.314Z,2.95
2023-03-21T19:48:56.294Z,3.72
2023-03-21T19:51:29.125Z,2.85
2023-03-21T19:53:56.145Z,3.20
2023-03-21T19:56:26.451Z,3.10
2023-03-21T19:58:54.118Z,3.30
2023-03-21T20:01:21.359Z,3.13
2023-03-21T20:03:48.008Z,3.40
2023-03-21T20:06:18.509Z,3.28
2023-03-21T20:09:34.072Z,3.10
2023-03-21T20:11:33.792Z,2.65
2023-03-21T20:14:02.870Z,2.88
2023-03-21T20:16:35.246Z,3.42
2023-03-21T20:19:04.613Z,3.22
2023-03-21T20:21:36.595Z,3.10
2023-03-21T20:24:09.023Z,3.15
2023-03-21T20:26:37.352Z,2.88
2023-03-21T20:29:48.430Z,3.20
2023-03-21T20:31:53.156Z,3.88
2023-03-21T20:34:21.171Z,2.55
2023-03-21T20:36:48.249Z,3.40
2023-03-21T20:39:15.718Z,3.00
2023-03-21T20:41:45.874Z,2.75
2023-03-21T20:47:05.455Z,3.53
2023-03-21T20:49:32.364Z,3.25
2023-03-21T20:54:50.766Z,3.47
2023-03-21T20:57:18.033Z,3.28
2023-03-21T20:59:47.545Z,3.15
2023-03-21T21:02:16.852Z,2.92
2023-03-21T21:05:08.042Z,3.15
2023-03-21T21:07:34.346Z,3.10
2023-03-21T21:10:01.323Z,2.70
2023-03-21T21:12:28.628Z,3.50
2023-03-21T21:14:56.169Z,3.13
2023-03-21T21:17:37.121Z,4.80
2023-03-21T21:20:17.641Z,3.92
2023-03-21T21:22:58.578Z,3.13
2023-03-21T21:25:27.122Z,3.17
2023-03-21T21:27:53.831Z,3.58
2023-03-21T21:30:20.856Z,3.28
2023-03-21T21:32:47.353Z,3.50
2023-03-21T21:35:16.384Z,3.50
2023-03-21T21:37:43.469Z,3.60
2023-03-21T21:40:16.665Z,2.88
2023-03-21T21:42:44.880Z,3.03
2023-03-21T21:45:13.550Z,3.63
2023-03-21T21:47:41.872Z,3.30
2023-03-21T21:50:08.885Z,3.85
2023-03-21T21:52:35.746Z,3.75
2023-03-21T21:55:06.371Z,3.78
2023-03-21T21:57:35.415Z,4.15
2023-03-21T22:00:06.160Z,4.10
2023-03-21T22:02:32.739Z,4.35
2023-03-21T22:04:59.158Z,4.18
2023-03-21T22:07:30.490Z,4.35
2023-03-21T22:09:56.944Z,3.83
2023-03-21T22:12:23.427Z,5.28
2023-03-21T22:14:49.972Z,5.13
2023-03-21T22:17:18.768Z,3.97
2023-03-21T22:19:58.974Z,3.40
2023-03-21T22:22:31.097Z,3.97
2023-03-21T22:24:57.891Z,3.40
2023-03-21T22:27:24.689Z,3.22
2023-03-21T22:29:51.438Z,3.05
2023-03-21T22:32:21.524Z,3.00
2023-03-21T22:34:51.390Z,2.83
2023-03-21T22:37:19.516Z,4.13
2023-03-21T22:39:46.578Z,4.13
2023-03-21T22:42:13.154Z,4.68
2023-03-21T22:44:39.727Z,4.03
2023-03-21T22:47:10.574Z,4.18
2023-03-21T22:49:38.416Z,3.25
2023-03-21T22:52:06.331Z,3.47
2023-03-21T22:54:33.120Z,3.65
2023-03-21T22:56:59.895Z,2.95
2023-03-21T22:59:26.785Z,3.65
2023-03-21T23:01:53.442Z,3.22
2023-03-21T23:04:20.550Z,3.40
2023-03-21T23:06:47.226Z,3.40
2023-03-21T23:09:13.742Z,3.35
2023-03-21T23:11:40.464Z,3.58
2023-03-21T23:14:08.714Z,3.35
2023-03-21T23:16:38.403Z,3.00
2023-03-21T23:19:05.845Z,3.38
2023-03-21T23:21:34.565Z,3.92
2023-03-21T23:24:01.105Z,4.10
2023-03-21T23:26:27.692Z,3.65
2023-03-21T23:28:54.792Z,3.50
2023-03-21T23:31:27.021Z,3.65
2023-03-21T23:33:54.396Z,3.63
2023-03-21T23:36:23.676Z,3.53
2023-03-21T23:38:50.644Z,3.65
2023-03-21T23:41:20.765Z,3.47
2023-03-21T23:43:48.163Z,4.03
2023-03-21T23:46:16.417Z,3.15
2023-03-21T23:48:44.475Z,4.95
2023-03-21T23:51:13.024Z,4.85
2023-03-21T23:53:40.196Z,4.28
2023-03-21T23:56:15.997Z,3.72
2023-03-21T23:58:42.984Z,4.40
